Time;durP1;ratioP1;P1;durP2;ratioP2;P2;SDS_P1;SDS_P2;PMS_P1;PMS_P2;Temp;Humidity;BMP_temperature;BMP_pressure;BME280_temperature;BME280_humidity;BME280_pressure;Samples;Min_cycle;Max_cycle;Signal;HPM_P1;HPM_P2
2021/05/20 00:00:40;;;;;;;1.50;0.80;;;23.30;39.50;;;;;;5053689;28;20431;-65
2021/05/20 00:03:06;;;;;;;1.20;0.60;;;23.40;39.60;;;;;;5071784;28;20403;-65
2021/05/20 00:05:32;;;;;;;1.30;0.68;;;23.30;39.50;;;;;;5071964;28;20410;-63
2021/05/20 00:07:57;;;;;;;1.30;0.68;;;23.40;39.50;;;;;;5071937;28;20462;-65
2021/05/20 00:10:23;;;;;;;2.33;1.00;;;23.30;39.40;;;;;;5071796;28;20530;-65
2021/05/20 00:12:49;;;;;;;1.48;0.60;;;23.30;39.70;;;;;;5071338;28;20403;-65
2021/05/20 00:15:15;;;;;;;1.47;0.60;;;23.30;39.30;;;;;;5071884;28;20390;-65
2021/05/20 00:17:42;;;;;;;1.63;0.57;;;23.30;39.30;;;;;;5071743;28;20478;-65
2021/05/20 00:20:08;;;;;;;1.30;0.60;;;23.30;39.30;;;;;;5071745;28;20383;-65
2021/05/20 00:22:34;;;;;;;1.25;0.70;;;23.30;39.20;;;;;;5071706;28;20388;-65
2021/05/20 00:24:59;;;;;;;0.90;0.50;;;23.30;39.20;;;;;;5071340;28;20487;-65
2021/05/20 00:27:25;;;;;;;0.90;0.60;;;23.30;39.20;;;;;;5053642;28;20415;-65
2021/05/20 00:29:50;;;;;;;1.10;0.50;;;23.30;39.20;;;;;;5071678;28;20376;-65
2021/05/20 00:32:17;;;;;;;0.93;0.55;;;23.30;39.10;;;;;;5071624;28;20843;-65
2021/05/20 00:34:42;;;;;;;1.02;0.50;;;23.30;39.10;;;;;;5071089;28;20380;-64
2021/05/20 00:37:08;;;;;;;1.17;0.50;;;23.30;39.00;;;;;;5071585;28;20384;-66
2021/05/20 00:39:34;;;;;;;0.80;0.40;;;23.30;39.00;;;;;;5071467;28;20867;-65
2021/05/20 00:42:09;;;;;;;1.00;0.40;;;23.30;39.00;;;;;;5071487;28;20399;-65
2021/05/20 00:44:50;;;;;;;1.00;0.40;;;23.30;38.90;;;;;;5071553;28;20379;-65
2021/05/20 00:47:25;;;;;;;1.02;0.60;;;23.40;38.90;;;;;;5071717;28;20415;-65
2021/05/20 00:49:50;;;;;;;1.40;0.47;;;23.40;38.90;;;;;;5070987;28;20739;-65
2021/05/20 00:52:16;;;;;;;1.23;0.53;;;23.30;38.80;;;;;;5071417;28;20391;-63
2021/05/20 00:54:42;;;;;;;0.70;0.40;;;23.30;38.80;;;;;;5071050;28;20379;-65
2021/05/20 00:57:09;;;;;;;0.80;0.40;;;23.30;38.70;;;;;;5071381;28;20437;-64
2021/05/20 00:59:36;;;;;;;0.75;0.40;;;23.30;38.70;;;;;;5071278;28;20396;-65
2021/05/20 01:02:02;;;;;;;0.77;0.40;;;23.30;38.70;;;;;;5071282;28;20396;-64
2021/05/20 01:04:27;;;;;;;0.75;0.30;;;23.40;38.70;;;;;;5070629;28;20460;-65
2021/05/20 01:06:53;;;;;;;0.80;0.40;;;23.30;38.70;;;;;;5070094;28;20407;-64
2021/05/20 01:09:19;;;;;;;0.70;0.38;;;23.30;38.70;;;;;;5071289;28;20391;-64
2021/05/20 01:11:45;;;;;;;0.82;0.45;;;23.30;38.60;;;;;;5071186;28;20387;-65
2021/05/20 01:14:11;;;;;;;0.45;0.30;;;23.40;38.60;;;;;;5071230;28;20376;-65
2021/05/20 01:16:40;;;;;;;0.60;0.35;;;23.30;38.50;;;;;;5071147;28;20471;-65
2021/05/20 01:19:06;;;;;;;0.90;0.40;;;23.30;38.50;;;;;;5070827;28;20430;-65
2021/05/20 01:21:33;;;;;;;0.90;0.40;;;23.30;38.60;;;;;;5071024;28;20872;-65
2021/05/20 01:23:59;;;;;;;0.98;0.50;;;23.30;38.50;;;;;;5071076;28;20376;-64
2021/05/20 01:26:25;;;;;;;0.60;0.38;;;23.30;38.50;;;;;;5070961;28;20403;-65
2021/05/20 01:28:51;;;;;;;0.77;0.40;;;23.30;38.50;;;;;;5070573;28;20479;-65
2021/05/20 01:31:17;;;;;;;0.80;0.40;;;23.20;38.50;;;;;;5071101;28;20386;-65
2021/05/20 01:33:43;;;;;;;0.80;0.40;;;23.30;38.50;;;;;;5071020;28;20428;-64
2021/05/20 01:36:08;;;;;;;0.57;0.30;;;23.30;38.50;;;;;;5071000;28;20897;-65
2021/05/20 01:38:41;;;;;;;0.70;0.30;;;23.30;38.40;;;;;;5070827;28;20449;-65
2021/05/20 01:41:11;;;;;;;0.68;0.35;;;23.30;38.40;;;;;;5070672;28;20410;-65
2021/05/20 01:43:40;;;;;;;0.70;0.40;;;23.30;38.40;;;;;;5070899;28;20383;-65
2021/05/20 01:46:06;;;;;;;0.60;0.30;;;23.30;38.40;;;;;;5070839;28;20403;-65
2021/05/20 01:48:36;;;;;;;0.57;0.30;;;23.30;38.50;;;;;;5070802;28;20396;-64
2021/05/20 01:51:07;;;;;;;0.83;0.43;;;23.20;38.50;;;;;;5052293;28;20383;-64
2021/05/20 01:53:34;;;;;;;0.82;0.40;;;23.20;38.40;;;;;;5072792;28;20469;-64
2021/05/20 01:56:01;;;;;;;0.60;0.38;;;23.20;38.40;;;;;;5074444;28;20875;-65
2021/05/20 01:58:27;;;;;;;0.50;0.30;;;23.20;38.30;;;;;;5074373;28;20395;-65
2021/05/20 02:00:53;;;;;;;0.60;0.40;;;23.20;38.30;;;;;;5073858;28;20380;-65
2021/05/20 02:03:19;;;;;;;0.77;0.40;;;23.20;38.30;;;;;;5074190;28;20418;-65
2021/05/20 02:05:45;;;;;;;0.50;0.38;;;23.20;38.30;;;;;;5074336;28;20731;-64
2021/05/20 02:08:10;;;;;;;0.77;0.40;;;23.20;38.30;;;;;;5074227;28;20887;-65
2021/05/20 02:10:36;;;;;;;0.50;0.30;;;23.20;38.20;;;;;;5074144;28;20506;-65
2021/05/20 02:13:02;;;;;;;0.98;0.40;;;23.20;38.30;;;;;;5073646;28;20411;-65
2021/05/20 02:15:27;;;;;;;0.40;0.40;;;23.20;38.20;;;;;;5074118;28;20384;-66
2021/05/20 02:17:53;;;;;;;1.10;0.30;;;23.20;38.20;;;;;;5074068;28;20387;-66
2021/05/20 02:20:20;;;;;;;0.70;0.40;;;23.20;38.10;;;;;;5074026;28;20398;-65
2021/05/20 02:22:46;;;;;;;0.55;0.30;;;23.30;38.10;;;;;;5055431;28;20752;-65
2021/05/20 02:25:12;;;;;;;0.60;0.30;;;23.30;38.10;;;;;;5073345;28;20395;-65
2021/05/20 02:27:38;;;;;;;0.50;0.30;;;23.30;38.00;;;;;;5073792;28;20424;-64
2021/05/20 02:30:05;;;;;;;0.53;0.30;;;23.30;38.00;;;;;;5073833;28;20398;-64
2021/05/20 02:32:31;;;;;;;1.00;0.40;;;23.30;38.00;;;;;;5073682;28;20388;-65
2021/05/20 02:34:56;;;;;;;0.88;0.30;;;23.30;38.00;;;;;;5055348;28;20391;-65
2021/05/20 02:37:23;;;;;;;0.60;0.30;;;23.20;38.00;;;;;;5073365;28;20391;-64
2021/05/20 02:39:48;;;;;;;0.40;0.20;;;23.20;38.00;;;;;;5073648;28;20923;-65
2021/05/20 02:42:14;;;;;;;0.40;0.30;;;23.30;38.00;;;;;;5073582;28;20487;-64
2021/05/20 02:44:40;;;;;;;0.68;0.30;;;23.30;37.90;;;;;;5073514;28;20395;-64
2021/05/20 02:47:05;;;;;;;0.73;0.30;;;23.30;37.90;;;;;;5072911;28;20776;-65
2021/05/20 02:49:31;;;;;;;0.83;0.40;;;23.30;37.90;;;;;;5073542;28;20395;-64
2021/05/20 02:51:57;;;;;;;0.57;0.30;;;23.30;37.80;;;;;;5073394;28;20387;-65
2021/05/20 02:54:23;;;;;;;0.70;0.30;;;23.30;37.80;;;;;;5073385;28;20376;-64
2021/05/20 02:56:49;;;;;;;0.65;0.30;;;23.30;37.90;;;;;;5073017;28;20423;-65
2021/05/20 02:59:15;;;;;;;0.60;0.40;;;23.30;37.80;;;;;;5073046;28;20438;-65
2021/05/20 03:01:45;;;;;;;1.30;0.50;;;23.30;37.80;;;;;;5073215;28;20395;-64
2021/05/20 03:04:11;;;;;;;0.95;0.47;;;23.30;38.30;;;;;;5072070;28;20440;-65
2021/05/20 03:06:37;;;;;;;0.63;0.30;;;23.30;37.70;;;;;;5072923;28;20407;-64
2021/05/20 03:09:09;;;;;;;0.45;0.30;;;23.30;37.70;;;;;;5072354;28;20383;-65
2021/05/20 03:11:34;;;;;;;1.67;0.40;;;23.20;38.00;;;;;;5071932;28;20388;-66
2021/05/20 03:14:00;;;;;;;1.50;0.50;;;23.20;38.50;;;;;;5054594;28;20897;-65
2021/05/20 03:16:26;;;;;;;2.17;0.43;;;23.10;38.70;;;;;;5072522;28;20383;-64
2021/05/20 03:18:52;;;;;;;0.73;0.38;;;23.20;38.70;;;;;;5071936;28;20388;-64
2021/05/20 03:21:18;;;;;;;0.40;0.20;;;23.20;38.60;;;;;;5072777;28;20748;-64
2021/05/20 03:23:44;;;;;;;0.70;0.30;;;23.20;38.30;;;;;;5072641;28;20380;-64
2021/05/20 03:26:09;;;;;;;1.30;0.30;;;23.20;38.90;;;;;;5072579;28;20395;-64
2021/05/20 03:28:35;;;;;;;2.80;0.50;;;23.20;39.00;;;;;;5072646;28;20404;-64
2021/05/20 03:31:01;;;;;;;2.35;0.40;;;23.30;39.40;;;;;;5072186;28;20864;-64
2021/05/20 03:33:26;;;;;;;2.93;0.40;;;23.30;39.80;;;;;;5072423;28;20902;-64
2021/05/20 03:35:52;;;;;;;2.80;0.40;;;23.30;39.80;;;;;;5071763;28;20382;-65
2021/05/20 03:38:18;;;;;;;2.10;0.40;;;23.30;39.90;;;;;;5071979;28;20391;-64
2021/05/20 03:40:43;;;;;;;8.13;0.95;;;23.40;40.50;;;;;;5053763;28;20916;-63
2021/05/20 03:43:09;;;;;;;3.37;0.40;;;23.40;40.50;;;;;;5071248;28;20376;-61
2021/05/20 03:45:35;;;;;;;1.90;0.40;;;23.30;40.00;;;;;;5080511;28;20892;-65
2021/05/20 03:48:00;;;;;;;1.57;0.40;;;23.40;40.10;;;;;;5054313;28;20969;-64
2021/05/20 03:50:26;;;;;;;1.20;0.30;;;23.30;39.80;;;;;;5072133;28;20379;-64
2021/05/20 03:52:51;;;;;;;4.40;0.50;;;23.30;39.70;;;;;;5071996;28;20384;-65
2021/05/20 03:55:17;;;;;;;2.63;0.40;;;23.30;39.30;;;;;;5071871;28;20755;-64
2021/05/20 03:57:43;;;;;;;5.38;0.40;;;23.30;40.00;;;;;;5072016;28;21026;-64
2021/05/20 04:00:09;;;;;;;2.63;0.30;;;23.30;39.90;;;;;;5071924;28;20379;-64
2021/05/20 04:02:35;;;;;;;2.40;0.43;;;23.20;39.20;;;;;;5071301;28;20403;-64
2021/05/20 04:05:00;;;;;;;4.10;0.40;;;23.30;38.80;;;;;;5071054;28;20494;-66
2021/05/20 04:07:26;;;;;;;1.73;0.40;;;23.30;38.70;;;;;;5071886;28;20415;-64
2021/05/20 04:09:52;;;;;;;1.90;0.40;;;23.30;38.60;;;;;;5071899;28;20395;-65
2021/05/20 04:12:17;;;;;;;2.67;0.40;;;23.20;38.40;;;;;;5071873;28;20384;-64
2021/05/20 04:14:43;;;;;;;2.58;0.30;;;23.30;38.40;;;;;;5071854;28;20388;-65
2021/05/20 04:17:08;;;;;;;1.20;0.30;;;23.20;38.20;;;;;;5071099;28;20774;-64
2021/05/20 04:19:34;;;;;;;0.85;0.30;;;23.20;38.20;;;;;;5071724;28;20406;-64
2021/05/20 04:22:00;;;;;;;2.33;0.30;;;23.30;38.20;;;;;;5073096;28;20874;-64
2021/05/20 04:24:27;;;;;;;2.80;0.40;;;23.20;38.70;;;;;;5071576;28;20851;-63
2021/05/20 04:26:53;;;;;;;2.83;0.35;;;23.20;39.50;;;;;;5071279;28;20498;-65
2021/05/20 04:29:19;;;;;;;2.70;0.73;;;23.20;38.50;;;;;;5071406;28;20471;-65
2021/05/20 04:31:45;;;;;;;3.40;0.40;;;23.20;39.00;;;;;;5054168;28;20434;-65
2021/05/20 04:34:11;;;;;;;3.63;0.40;;;23.20;39.30;;;;;;5076456;28;20529;-65
2021/05/20 04:36:36;;;;;;;3.28;0.50;;;23.20;38.90;;;;;;5071433;28;20779;-64
2021/05/20 04:39:03;;;;;;;2.77;0.50;;;23.20;38.90;;;;;;5070800;28;20395;-61
2021/05/20 04:41:31;;;;;;;2.28;0.40;;;23.20;38.80;;;;;;5071307;28;20383;-65
2021/05/20 04:43:57;;;;;;;4.15;0.55;;;23.20;39.20;;;;;;5071373;28;20902;-65
2021/05/20 04:46:23;;;;;;;3.13;0.43;;;23.20;39.60;;;;;;5071306;28;20403;-65
2021/05/20 04:48:49;;;;;;;2.25;0.30;;;23.20;39.80;;;;;;5071232;28;20387;-65
2021/05/20 04:51:16;;;;;;;2.47;0.47;;;23.20;39.20;;;;;;5070911;28;20403;-65
2021/05/20 04:53:42;;;;;;;3.42;0.40;;;23.20;38.90;;;;;;5071174;28;20750;-65
2021/05/20 04:56:07;;;;;;;2.57;0.40;;;23.20;38.70;;;;;;5070736;28;20427;-65
2021/05/20 04:58:33;;;;;;;3.20;0.40;;;23.20;38.50;;;;;;5071055;28;20946;-64
2021/05/20 05:00:59;;;;;;;3.20;0.40;;;23.20;38.40;;;;;;5067640;28;20449;-65
2021/05/20 05:03:25;;;;;;;1.50;0.30;;;23.20;38.50;;;;;;5070962;28;20400;-64
2021/05/20 05:05:51;;;;;;;4.45;0.50;;;23.20;38.80;;;;;;5070975;28;20388;-65
2021/05/20 05:08:16;;;;;;;1.80;0.40;;;23.10;39.10;;;;;;5070334;28;20760;-66
2021/05/20 05:10:42;;;;;;;6.30;0.60;;;23.20;38.90;;;;;;5069327;28;20941;-65
2021/05/20 05:13:08;;;;;;;4.07;0.77;;;23.20;38.80;;;;;;5070267;28;20401;-65
2021/05/20 05:15:34;;;;;;;3.00;0.70;;;23.20;38.90;;;;;;5071036;28;20392;-65
2021/05/20 05:18:00;;;;;;;4.22;0.60;;;23.20;38.80;;;;;;5070795;28;20391;-64
2021/05/20 05:20:25;;;;;;;3.13;0.70;;;23.30;38.90;;;;;;5070950;28;20387;-66
2021/05/20 05:22:51;;;;;;;3.63;0.63;;;23.20;38.70;;;;;;5070981;28;20384;-66
2021/05/20 05:25:17;;;;;;;4.53;0.60;;;23.30;38.80;;;;;;5070571;28;20448;-65
2021/05/20 05:27:43;;;;;;;6.07;0.80;;;23.30;38.70;;;;;;5071693;28;20923;-65
2021/05/20 05:30:09;;;;;;;2.50;0.70;;;23.30;38.70;;;;;;5074991;28;20376;-65
2021/05/20 05:32:35;;;;;;;1.85;0.68;;;23.30;38.70;;;;;;5074855;28;20941;-65
2021/05/20 05:35:00;;;;;;;3.73;0.60;;;23.30;38.60;;;;;;5074382;28;20387;-64
2021/05/20 05:37:26;;;;;;;1.92;0.63;;;23.20;38.50;;;;;;5074667;28;20406;-65
2021/05/20 05:39:53;;;;;;;1.83;0.80;;;23.30;38.60;;;;;;5074489;28;20380;-66
2021/05/20 05:42:18;;;;;;;2.40;0.60;;;23.20;38.50;;;;;;5074722;28;20396;-66
2021/05/20 05:44:44;;;;;;;3.60;0.70;;;23.20;38.50;;;;;;5074754;28;20525;-65
2021/05/20 05:47:10;;;;;;;1.33;0.63;;;23.20;38.50;;;;;;5074136;28;20434;-65
2021/05/20 05:49:45;;;;;;;2.25;0.70;;;23.30;38.50;;;;;;5074522;28;20391;-65
2021/05/20 05:52:17;;;;;;;1.55;0.63;;;23.20;38.40;;;;;;5074513;28;20876;-65
2021/05/20 05:54:42;;;;;;;1.70;0.50;;;23.20;38.50;;;;;;5074439;28;20867;-65
2021/05/20 05:57:08;;;;;;;1.77;0.50;;;23.30;38.50;;;;;;5073928;28;20478;-65
2021/05/20 05:59:34;;;;;;;1.45;0.60;;;23.20;38.40;;;;;;5074310;28;20423;-65
2021/05/20 06:01:59;;;;;;;1.60;0.50;;;23.20;38.40;;;;;;5074310;28;20502;-65
2021/05/20 06:04:26;;;;;;;1.10;0.63;;;23.20;38.40;;;;;;5074274;28;20404;-65
2021/05/20 06:06:52;;;;;;;1.27;0.60;;;23.20;38.50;;;;;;5074202;28;20406;-65
2021/05/20 06:09:17;;;;;;;1.63;0.47;;;23.20;38.40;;;;;;5073619;28;20399;-65
2021/05/20 06:11:43;;;;;;;1.60;0.60;;;23.20;38.40;;;;;;5074209;28;20408;-64
2021/05/20 06:14:10;;;;;;;2.28;0.73;;;23.20;38.40;;;;;;5074193;28;20387;-65
2021/05/20 06:16:39;;;;;;;1.67;0.60;;;23.20;38.30;;;;;;5073994;28;20445;-65
2021/05/20 06:19:05;;;;;;;1.10;0.60;;;23.20;38.30;;;;;;5073508;28;20763;-64
2021/05/20 06:21:31;;;;;;;1.10;0.50;;;23.20;38.30;;;;;;5073874;28;20449;-65
2021/05/20 06:23:57;;;;;;;1.08;0.50;;;23.20;38.30;;;;;;5073976;28;20387;-65
2021/05/20 06:26:26;;;;;;;1.25;0.60;;;23.20;38.30;;;;;;5055293;28;20473;-64
2021/05/20 06:28:52;;;;;;;1.30;0.50;;;23.20;38.40;;;;;;5073491;28;20436;-65
2021/05/20 06:31:18;;;;;;;1.52;0.70;;;23.10;38.30;;;;;;5073380;28;20396;-65
2021/05/20 06:33:43;;;;;;;1.80;0.60;;;23.10;38.40;;;;;;5073776;28;20399;-65
2021/05/20 06:36:10;;;;;;;1.27;0.60;;;23.10;38.30;;;;;;5073632;28;20383;-64
2021/05/20 06:38:36;;;;;;;1.17;0.52;;;23.10;38.30;;;;;;5073549;28;20736;-65
2021/05/20 06:41:06;;;;;;;1.80;0.63;;;23.10;38.30;;;;;;5073080;28;20384;-65
2021/05/20 06:43:32;;;;;;;1.20;0.55;;;23.10;38.30;;;;;;5073508;28;20410;-65
2021/05/20 06:45:58;;;;;;;1.65;0.57;;;23.10;38.40;;;;;;5073524;28;20388;-65
2021/05/20 06:48:24;;;;;;;1.00;0.40;;;23.10;38.40;;;;;;5073429;28;20410;-65
2021/05/20 06:50:49;;;;;;;0.80;0.50;;;23.10;38.40;;;;;;5073513;28;20744;-65
2021/05/20 06:53:19;;;;;;;0.77;0.40;;;23.10;38.30;;;;;;5072927;28;20390;-66
2021/05/20 06:55:45;;;;;;;1.20;0.60;;;23.10;38.30;;;;;;5073198;28;20448;-65
2021/05/20 07:00:38;;;;;;;0.98;0.40;;;23.10;38.20;;;;;;5073307;28;20474;-65
2021/05/20 07:03:04;;;;;;;1.40;0.50;;;23.10;38.30;;;;;;5072815;28;20404;-65
2021/05/20 07:05:31;;;;;;;1.00;0.50;;;23.10;38.20;;;;;;5055119;28;20396;-65
2021/05/20 07:07:58;;;;;;;1.17;0.50;;;23.10;38.20;;;;;;5073083;28;20447;-65
2021/05/20 07:10:24;;;;;;;1.08;0.57;;;23.10;38.10;;;;;;5073070;28;20383;-65
2021/05/20 07:12:50;;;;;;;0.90;0.40;;;23.10;38.20;;;;;;5073072;28;20471;-65
2021/05/20 07:15:16;;;;;;;1.00;0.50;;;23.10;38.10;;;;;;5072531;28;20415;-65
2021/05/20 07:17:42;;;;;;;0.85;0.50;;;23.10;38.10;;;;;;5072816;28;20392;-64
2021/05/20 07:20:08;;;;;;;1.17;0.52;;;23.10;38.10;;;;;;5072930;28;20466;-65
2021/05/20 07:22:35;;;;;;;1.05;0.50;;;23.10;38.10;;;;;;5072806;28;20400;-65
2021/05/20 07:25:03;;;;;;;1.20;0.60;;;23.10;38.10;;;;;;5072903;28;20375;-64
2021/05/20 07:27:29;;;;;;;1.20;0.40;;;23.10;38.10;;;;;;5072321;28;20475;-64
2021/05/20 07:29:55;;;;;;;0.60;0.30;;;23.10;38.10;;;;;;5072741;28;20380;-65
2021/05/20 07:32:20;;;;;;;0.70;0.50;;;23.10;38.10;;;;;;5072692;28;20521;-66
2021/05/20 07:34:46;;;;;;;0.50;0.30;;;23.00;38.10;;;;;;5054717;28;20444;-65
2021/05/20 07:37:12;;;;;;;1.10;0.40;;;23.10;38.10;;;;;;5072194;28;20917;-64
2021/05/20 07:39:38;;;;;;;0.77;0.38;;;23.10;38.10;;;;;;5072472;28;20467;-65
2021/05/20 07:42:05;;;;;;;0.90;0.40;;;23.10;38.00;;;;;;5072207;28;20533;-65
2021/05/20 07:44:31;;;;;;;1.10;0.40;;;23.10;38.10;;;;;;5071922;28;20379;-64
2021/05/20 07:46:57;;;;;;;0.80;0.40;;;23.10;38.00;;;;;;5072254;28;20501;-64
2021/05/20 07:49:25;;;;;;;0.70;0.40;;;23.10;38.00;;;;;;5071768;28;20473;-65
2021/05/20 07:51:51;;;;;;;0.73;0.40;;;23.00;38.00;;;;;;5071751;28;20395;-65
2021/05/20 07:54:17;;;;;;;0.88;0.40;;;23.10;38.00;;;;;;5072177;28;20755;-65
2021/05/20 07:56:44;;;;;;;0.75;0.30;;;23.10;38.60;;;;;;5071538;28;20383;-65
2021/05/20 07:59:10;;;;;;;0.65;0.30;;;23.10;38.00;;;;;;5071612;28;20810;-65
2021/05/20 08:01:38;;;;;;;0.65;0.40;;;23.10;38.00;;;;;;5054112;28;20399;-65
2021/05/20 08:04:13;;;;;;;0.63;0.30;;;23.10;38.00;;;;;;5071945;28;20404;-65
2021/05/20 08:06:42;;;;;;;0.75;0.40;;;23.10;37.90;;;;;;5072066;28;20483;-64
2021/05/20 08:11:39;;;;;;;0.80;0.40;;;23.10;38.00;;;;;;5072047;28;20891;-64
2021/05/20 08:14:05;;;;;;;0.60;0.30;;;23.10;38.00;;;;;;5071872;28;20395;-64
2021/05/20 08:16:31;;;;;;;0.98;0.35;;;23.10;37.90;;;;;;5071897;28;20395;-65
2021/05/20 08:18:59;;;;;;;0.60;0.30;;;23.10;37.90;;;;;;5071773;28;20383;-65
2021/05/20 08:21:24;;;;;;;0.77;0.40;;;23.10;37.90;;;;;;5071552;28;20384;-66
2021/05/20 08:23:50;;;;;;;0.63;0.30;;;23.10;37.80;;;;;;5071880;28;20379;-65
2021/05/20 08:26:16;;;;;;;0.33;0.23;;;23.10;37.90;;;;;;5071644;28;20412;-65
2021/05/20 08:28:41;;;;;;;0.68;0.38;;;23.10;37.80;;;;;;5053754;28;20483;-65
2021/05/20 08:31:07;;;;;;;0.70;0.33;;;23.10;37.80;;;;;;5071437;28;20554;-64
2021/05/20 08:33:33;;;;;;;0.40;0.30;;;23.20;37.80;;;;;;5071334;28;20380;-65
2021/05/20 08:35:58;;;;;;;0.80;0.30;;;23.10;37.70;;;;;;5071668;28;20458;-65
2021/05/20 08:38:24;;;;;;;0.70;0.40;;;23.10;37.70;;;;;;5071523;28;20383;-66
2021/05/20 08:40:50;;;;;;;0.65;0.30;;;23.10;37.70;;;;;;5071569;28;20406;-65
2021/05/20 08:43:15;;;;;;;0.50;0.30;;;23.20;37.70;;;;;;5071054;28;20380;-65
2021/05/20 08:45:41;;;;;;;0.60;0.30;;;23.10;37.60;;;;;;5071572;28;20431;-65
2021/05/20 08:48:07;;;;;;;0.50;0.30;;;23.10;37.70;;;;;;5071498;28;20910;-65
2021/05/20 08:50:34;;;;;;;0.47;0.30;;;23.10;37.60;;;;;;5071466;28;20376;-65
2021/05/20 08:53:00;;;;;;;0.50;0.30;;;23.10;37.60;;;;;;5071550;28;20398;-64
2021/05/20 08:55:32;;;;;;;0.45;0.20;;;23.20;37.60;;;;;;5070832;28;20384;-64
2021/05/20 08:57:59;;;;;;;0.52;0.30;;;23.20;37.60;;;;;;5070965;28;20395;-65
2021/05/20 09:00:27;;;;;;;0.60;0.20;;;23.20;37.70;;;;;;5070874;28;20402;-64
2021/05/20 09:03:02;;;;;;;0.43;0.20;;;23.20;37.60;;;;;;5072241;28;20391;-65
2021/05/20 09:05:28;;;;;;;0.40;0.30;;;23.10;37.60;;;;;;5074926;28;20944;-65
2021/05/20 09:07:59;;;;;;;0.63;0.30;;;23.20;37.70;;;;;;5075296;28;20499;-66
2021/05/20 09:10:27;;;;;;;0.57;0.27;;;23.10;37.60;;;;;;5075307;28;20462;-64
2021/05/20 09:13:16;;;;;;;0.30;0.20;;;23.10;37.60;;;;;;5075360;28;20393;-64
2021/05/20 09:15:46;;;;;;;0.43;0.20;;;23.10;37.60;;;;;;5075289;28;20379;-65
2021/05/20 09:18:14;;;;;;;0.60;0.50;;;23.10;37.60;;;;;;5075278;28;20384;-65
2021/05/20 09:20:42;;;;;;;0.55;0.30;;;23.10;37.60;;;;;;5075197;28;20391;-65
2021/05/20 09:23:11;;;;;;;0.40;0.20;;;23.10;37.60;;;;;;5074812;28;20437;-63
2021/05/20 09:25:38;;;;;;;0.52;0.30;;;23.10;37.60;;;;;;5074826;28;20388;-65
2021/05/20 09:28:06;;;;;;;0.68;0.28;;;23.10;37.60;;;;;;5075016;28;20419;-65
2021/05/20 09:30:36;;;;;;;0.50;0.30;;;23.20;37.60;;;;;;5075019;28;20384;-65
2021/05/20 09:33:16;;;;;;;0.40;0.20;;;23.10;37.60;;;;;;5075036;28;20388;-64
2021/05/20 09:35:44;;;;;;;0.30;0.20;;;23.10;37.60;;;;;;5074898;28;20392;-65
2021/05/20 09:38:19;;;;;;;0.38;0.22;;;23.10;37.60;;;;;;5074937;28;20395;-65
2021/05/20 09:40:52;;;;;;;0.63;0.20;;;23.10;37.60;;;;;;5074705;28;20391;-65
2021/05/20 09:43:30;;;;;;;0.68;0.20;;;23.10;37.60;;;;;;5074510;28;20380;-64
2021/05/20 09:45:57;;;;;;;0.40;0.30;;;23.10;37.60;;;;;;5074619;28;20778;-65
2021/05/20 09:48:26;;;;;;;0.43;0.30;;;23.10;37.60;;;;;;5074641;28;20811;-65
2021/05/20 09:50:54;;;;;;;0.50;0.25;;;23.20;37.60;;;;;;5074634;28;20403;-65
2021/05/20 09:53:22;;;;;;;0.50;0.20;;;23.20;37.60;;;;;;5074103;28;20415;-65
2021/05/20 09:55:56;;;;;;;0.40;0.20;;;23.20;37.60;;;;;;5074529;28;20860;-65
2021/05/20 09:58:25;;;;;;;0.40;0.20;;;23.20;37.60;;;;;;5074261;28;20437;-65
2021/05/20 10:00:51;;;;;;;0.60;0.20;;;23.20;37.50;;;;;;5074686;28;20376;-64
2021/05/20 10:03:19;;;;;;;0.50;0.20;;;23.20;37.50;;;;;;5073729;28;20408;-64
2021/05/20 10:05:57;;;;;;;0.43;0.30;;;23.20;37.50;;;;;;5074286;28;20404;-65
2021/05/20 10:08:26;;;;;;;0.40;0.28;;;23.20;37.50;;;;;;5074308;28;20533;-65
2021/05/20 10:10:54;;;;;;;0.40;0.30;;;23.20;37.50;;;;;;5074494;28;20380;-65
2021/05/20 10:13:22;;;;;;;0.32;0.25;;;23.20;37.50;;;;;;5072772;28;20895;-64
2021/05/20 10:15:49;;;;;;;0.50;0.30;;;23.20;37.40;;;;;;5073740;28;20391;-64
2021/05/20 10:18:17;;;;;;;0.38;0.20;;;23.20;37.40;;;;;;5074060;28;21130;-64
2021/05/20 10:20:45;;;;;;;0.57;0.20;;;23.20;37.40;;;;;;5074069;28;20487;-65
2021/05/20 10:23:15;;;;;;;0.47;0.20;;;23.20;37.40;;;;;;5074095;28;20454;-63
2021/05/20 10:25:42;;;;;;;0.47;0.20;;;23.20;37.40;;;;;;5073750;28;20483;-65
2021/05/20 10:28:10;;;;;;;0.30;0.20;;;23.20;37.40;;;;;;5073887;28;20494;-64
2021/05/20 10:30:37;;;;;;;0.20;0.10;;;23.20;37.40;;;;;;5073793;28;20392;-64
2021/05/20 10:33:04;;;;;;;0.40;0.20;;;23.20;37.40;;;;;;5073925;28;20483;-64
2021/05/20 10:35:51;;;;;;;0.52;0.30;;;23.20;37.40;;;;;;5073387;28;20396;-64
2021/05/20 10:38:24;;;;;;;0.35;0.20;;;23.20;37.40;;;;;;5055789;28;20384;-64
2021/05/20 10:41:05;;;;;;;0.60;0.30;;;23.20;37.40;;;;;;5073786;28;20467;-64
2021/05/20 10:43:30;;;;;;;0.40;0.20;;;23.20;37.40;;;;;;5073210;28;20815;-64
2021/05/20 10:46:15;;;;;;;0.80;0.30;;;23.20;37.40;;;;;;5073623;28;20475;-64
2021/05/20 10:48:50;;;;;;;0.43;0.30;;;23.30;37.40;;;;;;5073630;28;20798;-64
2021/05/20 10:51:19;;;;;;;0.32;0.20;;;23.30;37.40;;;;;;5073331;28;20411;-64
2021/05/20 10:53:51;;;;;;;0.40;0.30;;;23.30;37.40;;;;;;5073573;28;20388;-63
2021/05/20 10:56:22;;;;;;;0.50;0.23;;;23.30;37.30;;;;;;5073748;28;20467;-64
2021/05/20 10:58:49;;;;;;;0.85;0.20;;;23.30;37.30;;;;;;5073171;28;20423;-64
2021/05/20 11:01:21;;;;;;;0.45;0.20;;;23.30;37.30;;;;;;5073161;28;20396;-64
2021/05/20 11:03:51;;;;;;;0.45;0.30;;;23.30;37.40;;;;;;5073040;28;20400;-64
2021/05/20 11:06:18;;;;;;;0.50;0.20;;;23.30;37.50;;;;;;5055224;28;20400;-64
2021/05/20 11:08:46;;;;;;;0.43;0.20;;;23.30;37.30;;;;;;5073170;28;20403;-64
2021/05/20 11:11:42;;;;;;;0.55;0.30;;;23.30;37.30;;;;;;5073154;28;20385;-64
2021/05/20 11:14:14;;;;;;;0.43;0.30;;;23.30;37.30;;;;;;5073054;28;20479;-64
2021/05/20 11:16:44;;;;;;;0.30;0.20;;;23.40;37.30;;;;;;5073198;28;20384;-64
2021/05/20 11:21:59;;;;;;;0.40;0.20;;;23.40;37.30;;;;;;5073018;28;20462;-63
2021/05/20 11:24:30;;;;;;;0.25;0.20;;;23.40;37.20;;;;;;5072766;28;20446;-64
2021/05/20 11:27:08;;;;;;;0.35;0.28;;;23.40;37.30;;;;;;5071712;28;20407;-63
2021/05/20 11:29:37;;;;;;;0.30;0.20;;;23.40;37.20;;;;;;5072019;28;20461;-64
2021/05/20 11:37:21;;;;;;;0.20;0.20;;;23.40;37.20;;;;;;5072640;28;20394;-65
2021/05/20 11:39:47;;;;;;;0.30;0.20;;;23.40;37.80;;;;;;5072557;28;20388;-64
2021/05/20 11:42:23;;;;;;;0.50;0.30;;;23.40;37.20;;;;;;5072367;28;20394;-64
2021/05/20 11:44:49;;;;;;;0.50;0.20;;;23.40;37.20;;;;;;5072595;28;20392;-62
2021/05/20 11:47:15;;;;;;;0.50;0.20;;;23.40;37.20;;;;;;5072277;28;20427;-64
2021/05/20 11:49:44;;;;;;;0.40;0.20;;;23.40;37.20;;;;;;5071950;28;20833;-64
2021/05/20 11:52:11;;;;;;;0.25;0.20;;;23.40;37.10;;;;;;5054431;28;20395;-64
2021/05/20 11:54:39;;;;;;;0.80;0.50;;;23.40;37.10;;;;;;5054007;28;20400;-64
2021/05/20 11:57:07;;;;;;;0.30;0.20;;;23.50;37.20;;;;;;5072184;28;20384;-65
2021/05/20 11:59:36;;;;;;;0.28;0.13;;;23.50;37.10;;;;;;5071757;28;20379;-64
2021/05/20 12:02:07;;;;;;;0.40;0.20;;;23.50;37.10;;;;;;5072189;28;20445;-64
2021/05/20 12:04:33;;;;;;;0.43;0.20;;;23.40;37.20;;;;;;5071888;28;20407;-65
2021/05/20 12:07:01;;;;;;;0.43;0.22;;;23.50;37.10;;;;;;5071879;28;20423;-64
2021/05/20 12:09:26;;;;;;;0.28;0.20;;;23.50;37.10;;;;;;5071835;28;20456;-64
2021/05/20 12:11:52;;;;;;;0.30;0.20;;;23.50;37.10;;;;;;5072010;28;20786;-64
2021/05/20 12:14:34;;;;;;;0.20;0.20;;;23.50;37.10;;;;;;5072024;28;20387;-64
2021/05/20 12:17:21;;;;;;;0.40;0.20;;;23.50;37.10;;;;;;5071948;28;20383;-64
2021/05/20 12:19:59;;;;;;;0.40;0.20;;;23.50;37.00;;;;;;5071496;28;20391;-63
2021/05/20 12:22:30;;;;;;;0.45;0.20;;;23.50;37.10;;;;;;5071956;28;20414;-64
2021/05/20 12:25:04;;;;;;;0.28;0.10;;;23.50;37.10;;;;;;5071878;28;20475;-64
2021/05/20 12:27:51;;;;;;;0.60;0.20;;;23.50;37.10;;;;;;5071183;28;20450;-64
2021/05/20 12:30:28;;;;;;;0.30;0.20;;;23.50;37.10;;;;;;5071617;28;20388;-63
2021/05/20 12:33:06;;;;;;;0.40;0.20;;;23.50;37.10;;;;;;5071804;28;20403;-64
2021/05/20 12:35:43;;;;;;;0.40;0.22;;;23.50;37.10;;;;;;5071193;28;20380;-63
2021/05/20 12:38:17;;;;;;;0.20;0.10;;;23.50;37.10;;;;;;5071481;28;20383;-64
2021/05/20 12:40:50;;;;;;;5.00;0.28;;;23.50;37.00;;;;;;5071596;28;20387;-63
2021/05/20 12:43:29;;;;;;;1.35;0.30;;;23.40;36.90;;;;;;5071220;28;20394;-62
2021/05/20 12:46:03;;;;;;;0.52;0.13;;;23.50;36.90;;;;;;5071090;28;20470;-64
2021/05/20 12:48:37;;;;;;;2.25;0.40;;;23.50;36.90;;;;;;5053379;28;20399;-65
2021/05/20 12:51:07;;;;;;;2.55;0.50;;;23.40;36.80;;;;;;5071556;28;20364;-64
2021/05/20 12:53:42;;;;;;;1.30;0.30;;;23.40;36.70;;;;;;5070796;28;20942;-65
2021/05/20 12:56:23;;;;;;;0.85;0.40;;;23.50;39.50;;;;;;5071225;28;20433;-64
2021/05/20 12:58:56;;;;;;;1.63;0.20;;;23.50;36.90;;;;;;5070464;28;20379;-64
2021/05/20 13:01:24;;;;;;;2.30;0.30;;;23.50;36.00;;;;;;5071084;28;20402;-63
2021/05/20 13:03:58;;;;;;;1.83;0.40;;;23.40;35.80;;;;;;5070825;28;20883;-64